createdAt,value
2023-05-22T00:00:16.163Z,14.259574
2023-05-22T00:05:15.998Z,14.253846
2023-05-22T00:10:15.899Z,14.360284
2023-05-22T00:15:16.398Z,14.234752
2023-05-22T00:20:16.020Z,14.311348
2023-05-22T00:25:16.105Z,14.081560
2023-05-22T00:30:15.964Z,14.002113
2023-05-22T00:35:15.976Z,13.866901
2023-05-22T00:40:16.660Z,13.693662
2023-05-22T00:45:16.479Z,13.577305
2023-05-22T00:50:16.039Z,13.129078
2023-05-22T00:55:16.333Z,12.926241
2023-05-22T01:00:16.414Z,12.862857
2023-05-22T01:05:16.732Z,12.890780
2023-05-22T01:10:16.333Z,12.813380
2023-05-22T01:15:16.471Z,12.752817
2023-05-22T01:20:16.070Z,12.595105
2023-05-22T01:25:15.896Z,12.478169
2023-05-22T01:30:16.684Z,12.426241
2023-05-22T01:35:15.938Z,12.520423
2023-05-22T01:40:17.261Z,12.472535
2023-05-22T01:45:16.832Z,12.544755
2023-05-22T01:50:16.617Z,12.534266
2023-05-22T01:55:16.026Z,12.616783
2023-05-22T02:00:16.278Z,12.595804
2023-05-22T02:05:16.176Z,12.631724
2023-05-22T02:10:16.043Z,12.547586
2023-05-22T02:15:15.912Z,12.441781
2023-05-22T02:20:16.672Z,12.458904
2023-05-22T02:25:16.593Z,12.372414
2023-05-22T02:30:16.244Z,12.183562
2023-05-22T02:35:16.496Z,12.180420
2023-05-22T02:40:16.005Z,12.161702
2023-05-22T02:45:15.946Z,12.102128
2023-05-22T02:50:15.967Z,11.997183
2023-05-22T02:55:16.507Z,11.927660
2023-05-22T03:00:15.894Z,11.790780
2023-05-22T03:05:17.145Z,11.793706
2023-05-22T03:10:16.013Z,11.661972
2023-05-22T03:15:16.404Z,11.704225
2023-05-22T03:20:16.445Z,11.664085
2023-05-22T03:25:16.064Z,11.770714
2023-05-22T03:30:15.964Z,11.706250
2023-05-22T03:35:16.801Z,12.118182
2023-05-22T03:40:16.127Z,12.176596
2023-05-22T03:45:16.334Z,12.216312
2023-05-22T03:50:17.171Z,12.292958
2023-05-22T03:55:16.003Z,11.975352
2023-05-22T04:00:16.332Z,11.847552
2023-05-22T04:05:16.170Z,11.892308
2023-05-22T04:10:16.045Z,11.971329
2023-05-22T04:15:16.828Z,11.466667
2023-05-22T04:20:15.831Z,11.302113
2023-05-22T04:25:15.956Z,11.226573
2023-05-22T04:30:16.089Z,11.412587
2023-05-22T04:35:15.980Z,11.447222
2023-05-22T04:40:15.716Z,11.590141
2023-05-22T04:45:16.352Z,11.352083
2023-05-22T04:50:16.203Z,11.423077
2023-05-22T04:55:16.096Z,11.456338
2023-05-22T05:00:15.900Z,11.326241
2023-05-22T05:05:16.312Z,11.431206
2023-05-22T05:10:16.622Z,11.672143
2023-05-22T05:15:16.499Z,11.249296
2023-05-22T05:20:16.203Z,11.259155
2023-05-22T05:25:16.392Z,11.373759
2023-05-22T05:30:17.643Z,11.489437
2023-05-22T05:35:16.218Z,11.472535
2023-05-22T05:40:17.335Z,11.352482
2023-05-22T05:45:16.253Z,11.366901
2023-05-22T05:50:16.069Z,11.173571
2023-05-22T05:55:15.817Z,11.304255
2023-05-22T06:00:15.708Z,11.419149
2023-05-22T06:05:15.912Z,11.404930
2023-05-22T06:10:16.606Z,11.505674
2023-05-22T06:15:16.340Z,11.542657
2023-05-22T06:20:16.783Z,11.468085
2023-05-22T06:25:16.789Z,11.468056
2023-05-22T06:30:28.220Z,11.573759
2023-05-22T06:35:15.866Z,11.584507
2023-05-22T06:40:16.330Z,11.390909
2023-05-22T06:45:16.163Z,11.471831
2023-05-22T06:50:15.950Z,11.367606
2023-05-22T06:55:15.737Z,11.286525
2023-05-22T07:00:16.667Z,11.457343
2023-05-22T07:05:16.611Z,11.302098
2023-05-22T07:10:15.954Z,11.410417
2023-05-22T07:15:16.648Z,11.576389
2023-05-22T07:20:16.119Z,11.361806
2023-05-22T07:25:16.192Z,11.479861
2023-05-22T07:30:15.895Z,11.511111
2023-05-22T07:35:16.488Z,11.612587
2023-05-22T07:40:16.400Z,11.637762
2023-05-22T07:45:16.104Z,11.579167
2023-05-22T07:50:16.064Z,11.493056
2023-05-22T07:55:15.968Z,11.453103
2023-05-22T08:00:16.613Z,11.571528
2023-05-22T08:05:16.102Z,11.566434
2023-05-22T08:10:15.744Z,11.486111
2023-05-22T08:15:15.953Z,11.556552
2023-05-22T08:20:16.768Z,11.542069
2023-05-22T08:25:16.086Z,11.647222
2023-05-22T08:30:16.571Z,11.531250
2023-05-22T08:35:16.225Z,11.515172
2023-05-22T08:40:15.742Z,11.515753
2023-05-22T08:45:16.312Z,11.502055
2023-05-22T08:50:16.965Z,11.622378
2023-05-22T08:55:17.257Z,11.604895
2023-05-22T09:00:16.041Z,11.664336
2023-05-22T09:05:15.834Z,11.657746
2023-05-22T09:10:15.907Z,11.839716
2023-05-22T09:15:17.636Z,11.736429
2023-05-22T09:20:16.808Z,11.570922
2023-05-22T09:25:16.296Z,11.501408
2023-05-22T09:30:16.097Z,11.551773
2023-05-22T09:35:16.217Z,11.383803
2023-05-22T09:40:16.292Z,11.378723
2023-05-22T09:45:16.934Z,11.248227
2023-05-22T09:50:15.940Z,11.187413
2023-05-22T09:55:16.159Z,11.159310
2023-05-22T10:00:16.353Z,11.249655
2023-05-22T10:05:16.299Z,11.163265
2023-05-22T10:10:16.150Z,11.221379
2023-05-22T10:15:16.475Z,11.127083
2023-05-22T10:20:16.500Z,10.640559
2023-05-22T10:25:16.209Z,10.638028
2023-05-22T10:30:16.393Z,10.678873
2023-05-22T10:35:15.830Z,10.738732
2023-05-22T10:40:16.144Z,10.879720
2023-05-22T10:45:15.832Z,11.068310
2023-05-22T10:50:16.088Z,11.033099
2023-05-22T10:55:16.117Z,11.057343
2023-05-22T11:00:15.814Z,11.033803
2023-05-22T11:05:15.880Z,11.007639
2023-05-22T11:10:15.889Z,10.964789
2023-05-22T11:15:17.107Z,10.995105
2023-05-22T11:20:16.390Z,11.176761
2023-05-22T11:25:16.102Z,11.264789
2023-05-22T11:30:17.306Z,11.273239
2023-05-22T11:35:16.005Z,11.255944
2023-05-22T11:40:16.162Z,11.302113
2023-05-22T11:45:16.047Z,11.432867
2023-05-22T11:50:22.822Z,11.491608
2023-05-22T11:55:16.723Z,11.463889
2023-05-22T12:00:15.890Z,11.327778
2023-05-22T12:05:15.860Z,11.097203
2023-05-22T12:10:15.966Z,11.039437
2023-05-22T12:15:15.854Z,10.949650
2023-05-22T12:20:16.458Z,10.961702
2023-05-22T12:25:15.902Z,10.956028
2023-05-22T12:30:16.394Z,11.039716
2023-05-22T12:35:16.280Z,10.946809
2023-05-22T12:40:16.086Z,10.880142
2023-05-22T12:45:16.267Z,11.115385
2023-05-22T12:50:17.306Z,10.962411
2023-05-22T12:55:16.712Z,10.932867
2023-05-22T13:00:15.717Z,10.921127
2023-05-22T13:05:15.969Z,10.953191
2023-05-22T13:10:16.158Z,11.027143
2023-05-22T13:15:15.707Z,11.212766
2023-05-22T13:20:16.144Z,11.327660
2023-05-22T13:25:15.934Z,11.383803
2023-05-22T13:30:16.910Z,11.333333
2023-05-22T13:35:16.053Z,11.456338
2023-05-22T13:40:15.876Z,11.509091
2023-05-22T13:45:17.175Z,11.427465
2023-05-22T13:50:15.980Z,11.365035
2023-05-22T13:55:16.377Z,11.466901
2023-05-22T14:00:15.905Z,11.563889
2023-05-22T14:05:16.597Z,11.962238
2023-05-22T14:10:16.381Z,12.209859
2023-05-22T14:15:16.291Z,12.039860
2023-05-22T14:20:15.975Z,12.190071
2023-05-22T14:25:15.897Z,12.288811
2023-05-22T14:30:16.709Z,12.342958
2023-05-22T14:35:16.847Z,12.509155
2023-05-22T14:40:16.594Z,12.762937
2023-05-22T14:45:16.469Z,12.452778
2023-05-22T14:50:19.966Z,12.164583
2023-05-22T14:55:15.964Z,12.002817
2023-05-22T15:00:15.956Z,12.025532
2023-05-22T15:05:16.926Z,11.731206
2023-05-22T15:10:17.086Z,11.966197
2023-05-22T15:15:16.654Z,12.245070
2023-05-22T15:20:15.802Z,12.014789
2023-05-22T15:25:15.874Z,11.946099
2023-05-22T15:30:16.146Z,11.837324
2023-05-22T15:35:16.981Z,11.721986
2023-05-22T15:40:15.818Z,11.720423
2023-05-22T15:45:15.625Z,11.900000
2023-05-22T15:50:16.879Z,12.047222
2023-05-22T15:55:15.993Z,12.315172
2023-05-22T16:00:18.381Z,12.302797
2023-05-22T16:05:16.141Z,12.238028
2023-05-22T16:10:16.279Z,12.354225
2023-05-22T16:15:16.750Z,12.338732
2023-05-22T16:20:16.225Z,12.302778
2023-05-22T16:25:15.923Z,12.144218
2023-05-22T16:30:16.372Z,12.202759
2023-05-22T16:35:16.364Z,12.189796
2023-05-22T16:40:15.910Z,12.195172
2023-05-22T16:45:16.351Z,12.106338
2023-05-22T16:50:16.010Z,12.162238
2023-05-22T16:55:15.923Z,12.052113
2023-05-22T17:00:16.115Z,12.188732
2023-05-22T17:05:16.601Z,12.376596
2023-05-22T17:10:15.894Z,12.803497
2023-05-22T17:15:16.384Z,12.821528
2023-05-22T17:20:16.572Z,12.920548
2023-05-22T17:25:16.369Z,13.358621
2023-05-22T17:30:15.846Z,13.495139
2023-05-22T17:35:16.489Z,13.539583
2023-05-22T17:40:16.693Z,13.168056
2023-05-22T17:45:16.121Z,13.263194
2023-05-22T17:50:16.117Z,13.673427
2023-05-22T17:55:16.242Z,13.582394
2023-05-22T18:00:15.973Z,13.662937
2023-05-22T18:05:15.838Z,14.055245
2023-05-22T18:10:15.898Z,14.286620
2023-05-22T18:15:16.204Z,14.372340
2023-05-22T18:20:16.225Z,14.167606
2023-05-22T18:25:15.802Z,14.997222
2023-05-22T18:30:15.876Z,15.177622
2023-05-22T18:35:16.267Z,14.941667
2023-05-22T18:40:16.264Z,15.450350
2023-05-22T18:45:16.398Z,15.488028
2023-05-22T18:50:15.761Z,15.320567
2023-05-22T18:55:15.673Z,14.927778
2023-05-22T19:00:16.525Z,15.280986
2023-05-22T19:05:15.764Z,15.166667
2023-05-22T19:10:17.117Z,15.143357
2023-05-22T19:15:15.727Z,15.367586
2023-05-22T19:20:17.271Z,15.326761
2023-05-22T19:25:16.326Z,15.463636
2023-05-22T19:30:17.142Z,15.642958
2023-05-22T19:35:16.471Z,16.332168
2023-05-22T19:40:17.592Z,16.462937
2023-05-22T19:45:15.935Z,16.367832
2023-05-22T19:50:16.448Z,16.904196
2023-05-22T19:55:15.984Z,16.474648
2023-05-22T20:00:16.649Z,16.336620
2023-05-22T20:05:16.480Z,16.713475
2023-05-22T20:10:16.592Z,16.713475
2023-05-22T20:15:15.896Z,16.367832
2023-05-22T20:20:15.956Z,16.347183
2023-05-22T20:25:17.324Z,16.239007
2023-05-22T20:30:16.936Z,16.480142
2023-05-22T20:35:16.757Z,16.326056
2023-05-22T20:40:16.017Z,16.367606
2023-05-22T20:45:16.437Z,16.771631
2023-05-22T20:50:16.272Z,16.597872
2023-05-22T20:55:16.255Z,16.860839
2023-05-22T21:00:16.214Z,16.773944
2023-05-22T21:05:15.950Z,16.648227
2023-05-22T21:10:17.344Z,16.871631
2023-05-22T21:15:16.480Z,16.411972
2023-05-22T21:20:15.812Z,16.456250
2023-05-22T21:25:16.307Z,16.403521
2023-05-22T21:30:17.192Z,16.407801
2023-05-22T21:35:17.079Z,16.309929
2023-05-22T21:45:16.669Z,16.384286
2023-05-22T21:50:16.567Z,16.418571
2023-05-22T21:55:16.701Z,16.524823
2023-05-22T22:00:16.267Z,16.480851
2023-05-22T22:05:15.821Z,16.700709
2023-05-22T22:10:15.974Z,16.596479
2023-05-22T22:15:16.093Z,16.573944
2023-05-22T22:20:17.415Z,16.718182
2023-05-22T22:25:16.685Z,16.731690
2023-05-22T22:30:16.506Z,17.007042
2023-05-22T22:35:16.818Z,16.837931
2023-05-22T22:40:17.220Z,16.809155
2023-05-22T22:45:17.079Z,16.943262
2023-05-22T22:50:16.120Z,17.000000
2023-05-22T22:55:16.265Z,17.033333
2023-05-22T23:00:16.545Z,16.985106
2023-05-22T23:05:16.180Z,16.993662
2023-05-22T23:10:16.528Z,17.083803
2023-05-22T23:15:16.183Z,17.228873
2023-05-22T23:20:16.471Z,17.085816
2023-05-22T23:25:16.209Z,17.189437
2023-05-22T23:30:15.980Z,17.167832
2023-05-22T23:35:15.690Z,17.346479
2023-05-22T23:40:17.331Z,17.243262
2023-05-22T23:45:17.325Z,17.062411
2023-05-22T23:50:16.675Z,16.914894
2023-05-22T23:55:15.856Z,17.101408
